sensor_id;sensor_type;location;lat;lon;timestamp;temperature;humidity
10538;DHT22;5317;49.048;8.468;2023-07-13T00:02:05;24.90;58.00
10538;DHT22;5317;49.048;8.468;2023-07-13T00:04:32;24.80;57.90
10538;DHT22;5317;49.048;8.468;2023-07-13T00:06:59;24.80;58.00
10538;DHT22;5317;49.048;8.468;2023-07-13T00:09:26;24.80;58.10
10538;DHT22;5317;49.048;8.468;2023-07-13T00:11:55;24.80;58.00
10538;DHT22;5317;49.048;8.468;2023-07-13T00:14:23;24.70;58.20
10538;DHT22;5317;49.048;8.468;2023-07-13T00:16:50;24.70;58.00
10538;DHT22;5317;49.048;8.468;2023-07-13T00:19:18;24.70;57.90
10538;DHT22;5317;49.048;8.468;2023-07-13T00:21:45;24.70;58.30
10538;DHT22;5317;49.048;8.468;2023-07-13T00:24:14;24.70;58.30
10538;DHT22;5317;49.048;8.468;2023-07-13T00:26:44;24.60;58.40
10538;DHT22;5317;49.048;8.468;2023-07-13T00:29:11;24.60;58.30
10538;DHT22;5317;49.048;8.468;2023-07-13T00:31:39;24.60;58.50
10538;DHT22;5317;49.048;8.468;2023-07-13T00:34:06;24.60;58.90
10538;DHT22;5317;49.048;8.468;2023-07-13T00:36:34;24.50;59.00
10538;DHT22;5317;49.048;8.468;2023-07-13T00:39:01;24.50;59.10
10538;DHT22;5317;49.048;8.468;2023-07-13T00:41:29;24.40;59.70
10538;DHT22;5317;49.048;8.468;2023-07-13T00:43:56;24.40;59.40
10538;DHT22;5317;49.048;8.468;2023-07-13T00:46:26;24.40;59.70
10538;DHT22;5317;49.048;8.468;2023-07-13T00:48:55;24.30;59.60
10538;DHT22;5317;49.048;8.468;2023-07-13T00:51:27;24.30;60.00
10538;DHT22;5317;49.048;8.468;2023-07-13T00:53:58;24.30;60.30
10538;DHT22;5317;49.048;8.468;2023-07-13T00:56:26;24.20;60.20
10538;DHT22;5317;49.048;8.468;2023-07-13T00:58:54;24.10;59.80
10538;DHT22;5317;49.048;8.468;2023-07-13T01:01:21;24.10;60.30
10538;DHT22;5317;49.048;8.468;2023-07-13T01:03:48;24.10;60.00
10538;DHT22;5317;49.048;8.468;2023-07-13T01:06:16;24.00;59.60
10538;DHT22;5317;49.048;8.468;2023-07-13T01:08:43;24.00;59.40
10538;DHT22;5317;49.048;8.468;2023-07-13T01:11:12;24.00;59.60
10538;DHT22;5317;49.048;8.468;2023-07-13T01:13:38;24.00;59.60
10538;DHT22;5317;49.048;8.468;2023-07-13T01:16:13;24.00;59.40
10538;DHT22;5317;49.048;8.468;2023-07-13T01:18:41;24.00;59.40
10538;DHT22;5317;49.048;8.468;2023-07-13T01:21:10;24.00;59.10
10538;DHT22;5317;49.048;8.468;2023-07-13T01:23:36;23.90;59.30
10538;DHT22;5317;49.048;8.468;2023-07-13T01:26:03;23.90;59.10
10538;DHT22;5317;49.048;8.468;2023-07-13T01:28:30;23.90;59.30
10538;DHT22;5317;49.048;8.468;2023-07-13T01:31:02;23.90;59.20
10538;DHT22;5317;49.048;8.468;2023-07-13T01:33:29;23.90;59.30
10538;DHT22;5317;49.048;8.468;2023-07-13T01:35:56;23.80;59.10
10538;DHT22;5317;49.048;8.468;2023-07-13T01:38:25;23.80;59.50
10538;DHT22;5317;49.048;8.468;2023-07-13T01:40:52;23.80;58.90
10538;DHT22;5317;49.048;8.468;2023-07-13T01:43:19;23.70;58.60
10538;DHT22;5317;49.048;8.468;2023-07-13T01:45:46;23.70;58.50
10538;DHT22;5317;49.048;8.468;2023-07-13T01:48:14;23.70;58.40
10538;DHT22;5317;49.048;8.468;2023-07-13T01:50:40;23.70;58.40
10538;DHT22;5317;49.048;8.468;2023-07-13T01:53:08;23.70;58.20
10538;DHT22;5317;49.048;8.468;2023-07-13T01:55:36;23.60;58.00
10538;DHT22;5317;49.048;8.468;2023-07-13T01:58:04;23.60;58.20
10538;DHT22;5317;49.048;8.468;2023-07-13T02:00:32;23.60;58.00
10538;DHT22;5317;49.048;8.468;2023-07-13T02:02:59;23.60;57.80
10538;DHT22;5317;49.048;8.468;2023-07-13T02:05:26;23.60;57.60
10538;DHT22;5317;49.048;8.468;2023-07-13T02:07:53;23.70;57.70
10538;DHT22;5317;49.048;8.468;2023-07-13T02:10:20;23.70;58.40
10538;DHT22;5317;49.048;8.468;2023-07-13T02:12:48;23.70;57.20
10538;DHT22;5317;49.048;8.468;2023-07-13T02:15:16;23.70;57.20
10538;DHT22;5317;49.048;8.468;2023-07-13T02:17:43;23.70;56.90
10538;DHT22;5317;49.048;8.468;2023-07-13T02:20:10;23.70;56.90
10538;DHT22;5317;49.048;8.468;2023-07-13T02:22:37;23.70;58.20
10538;DHT22;5317;49.048;8.468;2023-07-13T02:25:04;23.60;58.90
10538;DHT22;5317;49.048;8.468;2023-07-13T02:27:31;23.40;59.20
10538;DHT22;5317;49.048;8.468;2023-07-13T02:30:00;23.30;59.40
10538;DHT22;5317;49.048;8.468;2023-07-13T02:32:27;23.20;59.60
10538;DHT22;5317;49.048;8.468;2023-07-13T02:34:53;23.10;59.90
10538;DHT22;5317;49.048;8.468;2023-07-13T02:37:20;23.00;60.20
10538;DHT22;5317;49.048;8.468;2023-07-13T02:39:47;23.00;60.60
10538;DHT22;5317;49.048;8.468;2023-07-13T02:42:14;22.90;61.70
10538;DHT22;5317;49.048;8.468;2023-07-13T02:44:41;22.90;61.00
10538;DHT22;5317;49.048;8.468;2023-07-13T02:47:09;22.90;61.20
10538;DHT22;5317;49.048;8.468;2023-07-13T02:49:36;22.80;61.20
10538;DHT22;5317;49.048;8.468;2023-07-13T02:52:04;22.70;61.70
10538;DHT22;5317;49.048;8.468;2023-07-13T02:54:31;22.70;61.40
10538;DHT22;5317;49.048;8.468;2023-07-13T02:56:58;22.70;61.30
10538;DHT22;5317;49.048;8.468;2023-07-13T02:59:24;22.60;61.20
10538;DHT22;5317;49.048;8.468;2023-07-13T03:01:52;22.60;62.20
10538;DHT22;5317;49.048;8.468;2023-07-13T03:04:20;22.60;61.80
10538;DHT22;5317;49.048;8.468;2023-07-13T03:06:46;22.50;61.80
10538;DHT22;5317;49.048;8.468;2023-07-13T03:09:13;22.50;62.20
10538;DHT22;5317;49.048;8.468;2023-07-13T03:11:40;22.60;62.90
10538;DHT22;5317;49.048;8.468;2023-07-13T03:14:08;22.50;62.90
10538;DHT22;5317;49.048;8.468;2023-07-13T03:16:35;22.50;62.70
10538;DHT22;5317;49.048;8.468;2023-07-13T03:19:02;22.40;62.40
10538;DHT22;5317;49.048;8.468;2023-07-13T03:21:30;22.30;62.70
10538;DHT22;5317;49.048;8.468;2023-07-13T03:23:57;22.40;63.10
10538;DHT22;5317;49.048;8.468;2023-07-13T03:26:23;22.30;63.10
10538;DHT22;5317;49.048;8.468;2023-07-13T03:28:50;22.20;63.00
10538;DHT22;5317;49.048;8.468;2023-07-13T03:31:20;22.20;63.10
10538;DHT22;5317;49.048;8.468;2023-07-13T03:33:47;22.20;63.60
10538;DHT22;5317;49.048;8.468;2023-07-13T03:36:16;22.10;63.60
10538;DHT22;5317;49.048;8.468;2023-07-13T03:38:46;22.10;63.90
10538;DHT22;5317;49.048;8.468;2023-07-13T03:41:13;22.10;64.40
10538;DHT22;5317;49.048;8.468;2023-07-13T03:43:40;22.00;64.30
10538;DHT22;5317;49.048;8.468;2023-07-13T03:46:07;22.00;64.50
10538;DHT22;5317;49.048;8.468;2023-07-13T03:48:34;22.00;64.90
10538;DHT22;5317;49.048;8.468;2023-07-13T03:51:01;21.90;64.90
10538;DHT22;5317;49.048;8.468;2023-07-13T03:53:28;21.90;64.90
10538;DHT22;5317;49.048;8.468;2023-07-13T03:55:56;21.80;64.90
10538;DHT22;5317;49.048;8.468;2023-07-13T03:58:27;21.80;65.10
10538;DHT22;5317;49.048;8.468;2023-07-13T04:00:55;21.70;65.40
10538;DHT22;5317;49.048;8.468;2023-07-13T04:03:23;21.70;66.40
10538;DHT22;5317;49.048;8.468;2023-07-13T04:05:50;21.70;65.80
10538;DHT22;5317;49.048;8.468;2023-07-13T04:08:16;21.60;65.80
10538;DHT22;5317;49.048;8.468;2023-07-13T04:10:44;21.70;65.80
10538;DHT22;5317;49.048;8.468;2023-07-13T04:13:12;21.70;65.90
10538;DHT22;5317;49.048;8.468;2023-07-13T04:15:40;21.80;66.20
10538;DHT22;5317;49.048;8.468;2023-07-13T04:18:07;21.80;66.00
10538;DHT22;5317;49.048;8.468;2023-07-13T04:20:34;21.80;66.30
10538;DHT22;5317;49.048;8.468;2023-07-13T04:23:01;21.80;66.30
10538;DHT22;5317;49.048;8.468;2023-07-13T04:25:28;21.80;66.20
10538;DHT22;5317;49.048;8.468;2023-07-13T04:27:55;22.00;66.40
10538;DHT22;5317;49.048;8.468;2023-07-13T04:30:23;21.80;66.40
10538;DHT22;5317;49.048;8.468;2023-07-13T04:32:50;21.90;67.00
10538;DHT22;5317;49.048;8.468;2023-07-13T04:35:18;21.90;66.70
10538;DHT22;5317;49.048;8.468;2023-07-13T04:37:46;21.90;66.70
10538;DHT22;5317;49.048;8.468;2023-07-13T04:40:14;22.00;67.00
10538;DHT22;5317;49.048;8.468;2023-07-13T04:42:41;22.00;66.90
10538;DHT22;5317;49.048;8.468;2023-07-13T04:45:08;22.00;66.80
10538;DHT22;5317;49.048;8.468;2023-07-13T04:47:36;22.10;67.00
10538;DHT22;5317;49.048;8.468;2023-07-13T04:50:04;22.20;68.00
10538;DHT22;5317;49.048;8.468;2023-07-13T04:52:31;22.20;67.70
10538;DHT22;5317;49.048;8.468;2023-07-13T04:54:59;22.30;67.60
10538;DHT22;5317;49.048;8.468;2023-07-13T04:57:26;22.30;68.20
10538;DHT22;5317;49.048;8.468;2023-07-13T04:59:53;22.40;67.20
10538;DHT22;5317;49.048;8.468;2023-07-13T05:02:20;22.50;67.10
10538;DHT22;5317;49.048;8.468;2023-07-13T05:04:49;22.50;67.00
10538;DHT22;5317;49.048;8.468;2023-07-13T05:07:16;22.50;67.00
10538;DHT22;5317;49.048;8.468;2023-07-13T05:09:43;22.50;67.00
10538;DHT22;5317;49.048;8.468;2023-07-13T05:12:10;22.60;66.80
10538;DHT22;5317;49.048;8.468;2023-07-13T05:14:37;22.70;67.50
10538;DHT22;5317;49.048;8.468;2023-07-13T05:17:04;22.70;67.50
10538;DHT22;5317;49.048;8.468;2023-07-13T05:19:31;22.70;66.90
10538;DHT22;5317;49.048;8.468;2023-07-13T05:21:59;22.80;67.00
10538;DHT22;5317;49.048;8.468;2023-07-13T05:24:27;22.80;66.60
10538;DHT22;5317;49.048;8.468;2023-07-13T05:26:54;22.80;66.60
10538;DHT22;5317;49.048;8.468;2023-07-13T05:29:22;22.80;66.40
10538;DHT22;5317;49.048;8.468;2023-07-13T05:31:50;22.80;66.80
10538;DHT22;5317;49.048;8.468;2023-07-13T05:34:17;22.90;66.70
10538;DHT22;5317;49.048;8.468;2023-07-13T05:36:44;22.90;65.50
10538;DHT22;5317;49.048;8.468;2023-07-13T05:39:12;22.90;65.20
10538;DHT22;5317;49.048;8.468;2023-07-13T05:41:39;23.00;65.30
10538;DHT22;5317;49.048;8.468;2023-07-13T05:44:06;23.00;64.80
10538;DHT22;5317;49.048;8.468;2023-07-13T05:46:33;23.00;64.50
10538;DHT22;5317;49.048;8.468;2023-07-13T05:49:00;23.10;64.80
10538;DHT22;5317;49.048;8.468;2023-07-13T05:51:27;23.10;64.60
10538;DHT22;5317;49.048;8.468;2023-07-13T05:53:54;23.10;64.80
10538;DHT22;5317;49.048;8.468;2023-07-13T05:56:22;23.10;64.70
10538;DHT22;5317;49.048;8.468;2023-07-13T05:58:51;23.20;64.80
10538;DHT22;5317;49.048;8.468;2023-07-13T06:01:17;23.20;64.90
10538;DHT22;5317;49.048;8.468;2023-07-13T06:03:46;23.30;65.70
10538;DHT22;5317;49.048;8.468;2023-07-13T06:06:12;23.30;64.40
10538;DHT22;5317;49.048;8.468;2023-07-13T06:08:39;23.40;64.70
10538;DHT22;5317;49.048;8.468;2023-07-13T06:11:09;23.40;64.90
10538;DHT22;5317;49.048;8.468;2023-07-13T06:13:38;23.50;65.00
10538;DHT22;5317;49.048;8.468;2023-07-13T06:16:05;23.60;65.40
10538;DHT22;5317;49.048;8.468;2023-07-13T06:18:33;23.70;65.20
10538;DHT22;5317;49.048;8.468;2023-07-13T06:21:00;23.70;65.50
10538;DHT22;5317;49.048;8.468;2023-07-13T06:23:27;23.70;64.80
10538;DHT22;5317;49.048;8.468;2023-07-13T06:25:54;23.80;64.80
10538;DHT22;5317;49.048;8.468;2023-07-13T06:28:22;23.90;64.00
10538;DHT22;5317;49.048;8.468;2023-07-13T06:30:50;24.10;64.70
10538;DHT22;5317;49.048;8.468;2023-07-13T06:33:17;24.10;62.60
10538;DHT22;5317;49.048;8.468;2023-07-13T06:35:43;24.20;61.20
10538;DHT22;5317;49.048;8.468;2023-07-13T06:38:10;24.30;61.60
10538;DHT22;5317;49.048;8.468;2023-07-13T06:40:37;24.30;60.50
10538;DHT22;5317;49.048;8.468;2023-07-13T06:43:04;24.30;58.30
10538;DHT22;5317;49.048;8.468;2023-07-13T06:45:35;24.30;57.20
10538;DHT22;5317;49.048;8.468;2023-07-13T06:48:03;24.30;57.00
10538;DHT22;5317;49.048;8.468;2023-07-13T06:50:30;24.40;56.60
10538;DHT22;5317;49.048;8.468;2023-07-13T06:52:57;24.40;56.60
10538;DHT22;5317;49.048;8.468;2023-07-13T06:55:25;24.40;55.90
10538;DHT22;5317;49.048;8.468;2023-07-13T06:57:52;24.40;55.50
10538;DHT22;5317;49.048;8.468;2023-07-13T07:00:19;24.50;55.30
10538;DHT22;5317;49.048;8.468;2023-07-13T07:02:46;24.60;54.80
10538;DHT22;5317;49.048;8.468;2023-07-13T07:05:14;24.70;54.40
10538;DHT22;5317;49.048;8.468;2023-07-13T07:07:41;24.80;55.20
10538;DHT22;5317;49.048;8.468;2023-07-13T07:10:08;24.90;55.30
10538;DHT22;5317;49.048;8.468;2023-07-13T07:12:35;25.00;54.30
10538;DHT22;5317;49.048;8.468;2023-07-13T07:15:02;25.00;54.20
10538;DHT22;5317;49.048;8.468;2023-07-13T07:17:29;25.10;54.10
10538;DHT22;5317;49.048;8.468;2023-07-13T07:19:56;25.30;53.30
10538;DHT22;5317;49.048;8.468;2023-07-13T07:22:24;25.30;53.00
10538;DHT22;5317;49.048;8.468;2023-07-13T07:24:52;25.40;53.20
10538;DHT22;5317;49.048;8.468;2023-07-13T07:27:19;25.40;53.40
10538;DHT22;5317;49.048;8.468;2023-07-13T07:29:46;25.40;53.70
10538;DHT22;5317;49.048;8.468;2023-07-13T07:32:13;25.50;53.30
10538;DHT22;5317;49.048;8.468;2023-07-13T07:34:40;25.60;53.40
10538;DHT22;5317;49.048;8.468;2023-07-13T07:37:10;25.70;54.00
10538;DHT22;5317;49.048;8.468;2023-07-13T07:39:39;25.90;53.10
10538;DHT22;5317;49.048;8.468;2023-07-13T07:42:06;26.00;53.00
10538;DHT22;5317;49.048;8.468;2023-07-13T07:44:33;26.00;52.10
10538;DHT22;5317;49.048;8.468;2023-07-13T07:47:00;26.00;51.80
10538;DHT22;5317;49.048;8.468;2023-07-13T07:49:27;25.90;52.50
10538;DHT22;5317;49.048;8.468;2023-07-13T07:51:54;25.90;52.80
10538;DHT22;5317;49.048;8.468;2023-07-13T07:54:21;26.00;53.30
10538;DHT22;5317;49.048;8.468;2023-07-13T07:56:49;26.10;52.40
10538;DHT22;5317;49.048;8.468;2023-07-13T07:59:16;26.20;52.40
10538;DHT22;5317;49.048;8.468;2023-07-13T08:01:43;26.20;52.10
10538;DHT22;5317;49.048;8.468;2023-07-13T08:04:11;26.20;51.60
10538;DHT22;5317;49.048;8.468;2023-07-13T08:06:38;26.20;50.60
10538;DHT22;5317;49.048;8.468;2023-07-13T08:09:05;26.30;50.40
10538;DHT22;5317;49.048;8.468;2023-07-13T08:11:33;26.40;49.20
10538;DHT22;5317;49.048;8.468;2023-07-13T08:14:03;26.40;49.40
10538;DHT22;5317;49.048;8.468;2023-07-13T08:16:30;26.60;48.50
10538;DHT22;5317;49.048;8.468;2023-07-13T08:18:58;26.60;48.40
10538;DHT22;5317;49.048;8.468;2023-07-13T08:21:25;26.70;48.00
10538;DHT22;5317;49.048;8.468;2023-07-13T08:23:52;26.80;48.70
10538;DHT22;5317;49.048;8.468;2023-07-13T08:26:19;27.00;48.90
10538;DHT22;5317;49.048;8.468;2023-07-13T08:28:47;27.10;48.70
10538;DHT22;5317;49.048;8.468;2023-07-13T08:31:15;27.20;48.10
10538;DHT22;5317;49.048;8.468;2023-07-13T08:33:42;27.00;47.10
10538;DHT22;5317;49.048;8.468;2023-07-13T08:36:09;27.10;47.30
10538;DHT22;5317;49.048;8.468;2023-07-13T08:38:36;27.20;48.20
10538;DHT22;5317;49.048;8.468;2023-07-13T08:41:11;27.20;47.00
10538;DHT22;5317;49.048;8.468;2023-07-13T08:43:38;27.10;46.50
10538;DHT22;5317;49.048;8.468;2023-07-13T08:46:12;27.10;46.70
10538;DHT22;5317;49.048;8.468;2023-07-13T08:48:44;27.10;45.90
10538;DHT22;5317;49.048;8.468;2023-07-13T08:51:28;27.10;45.90
10538;DHT22;5317;49.048;8.468;2023-07-13T08:54:01;27.00;46.20
10538;DHT22;5317;49.048;8.468;2023-07-13T08:56:29;27.10;46.20
10538;DHT22;5317;49.048;8.468;2023-07-13T08:58:58;27.20;46.30
10538;DHT22;5317;49.048;8.468;2023-07-13T09:01:31;27.30;47.30
10538;DHT22;5317;49.048;8.468;2023-07-13T09:04:05;27.20;45.30
10538;DHT22;5317;49.048;8.468;2023-07-13T09:06:46;27.40;45.90
10538;DHT22;5317;49.048;8.468;2023-07-13T09:09:22;27.40;42.90
10538;DHT22;5317;49.048;8.468;2023-07-13T09:12:02;27.30;44.10
10538;DHT22;5317;49.048;8.468;2023-07-13T09:14:39;27.30;42.80
10538;DHT22;5317;49.048;8.468;2023-07-13T09:17:14;27.50;43.50
10538;DHT22;5317;49.048;8.468;2023-07-13T09:19:47;27.50;42.30
10538;DHT22;5317;49.048;8.468;2023-07-13T09:22:19;27.40;41.10
10538;DHT22;5317;49.048;8.468;2023-07-13T09:24:57;27.50;42.90
10538;DHT22;5317;49.048;8.468;2023-07-13T09:27:30;27.70;43.40
10538;DHT22;5317;49.048;8.468;2023-07-13T09:30:17;27.90;44.40
10538;DHT22;5317;49.048;8.468;2023-07-13T09:32:52;28.00;42.70
10538;DHT22;5317;49.048;8.468;2023-07-13T09:35:25;28.10;42.40
10538;DHT22;5317;49.048;8.468;2023-07-13T09:37:58;28.10;41.50
10538;DHT22;5317;49.048;8.468;2023-07-13T09:40:35;28.00;42.00
10538;DHT22;5317;49.048;8.468;2023-07-13T09:43:03;28.00;41.90
10538;DHT22;5317;49.048;8.468;2023-07-13T09:45:34;28.00;41.90
10538;DHT22;5317;49.048;8.468;2023-07-13T09:48:05;28.00;42.80
10538;DHT22;5317;49.048;8.468;2023-07-13T09:50:34;28.00;42.80
10538;DHT22;5317;49.048;8.468;2023-07-13T09:53:02;28.10;41.90
10538;DHT22;5317;49.048;8.468;2023-07-13T09:55:31;28.10;41.80
10538;DHT22;5317;49.048;8.468;2023-07-13T09:58:03;28.20;41.80
10538;DHT22;5317;49.048;8.468;2023-07-13T10:00:32;28.30;40.90
10538;DHT22;5317;49.048;8.468;2023-07-13T10:03:04;28.20;40.50
10538;DHT22;5317;49.048;8.468;2023-07-13T10:05:41;28.30;41.10
10538;DHT22;5317;49.048;8.468;2023-07-13T10:08:24;28.20;40.10
10538;DHT22;5317;49.048;8.468;2023-07-13T10:10:58;28.20;40.10
10538;DHT22;5317;49.048;8.468;2023-07-13T10:13:33;28.20;41.30
10538;DHT22;5317;49.048;8.468;2023-07-13T10:16:03;28.30;41.30
10538;DHT22;5317;49.048;8.468;2023-07-13T10:18:38;28.30;41.40
10538;DHT22;5317;49.048;8.468;2023-07-13T10:21:14;28.40;41.10
10538;DHT22;5317;49.048;8.468;2023-07-13T10:23:42;28.50;41.00
10538;DHT22;5317;49.048;8.468;2023-07-13T10:26:15;28.70;41.50
10538;DHT22;5317;49.048;8.468;2023-07-13T10:28:45;28.80;40.60
10538;DHT22;5317;49.048;8.468;2023-07-13T10:31:15;28.90;40.70
10538;DHT22;5317;49.048;8.468;2023-07-13T10:33:42;28.80;40.60
10538;DHT22;5317;49.048;8.468;2023-07-13T10:36:19;28.90;41.00
10538;DHT22;5317;49.048;8.468;2023-07-13T10:38:50;28.90;40.80
10538;DHT22;5317;49.048;8.468;2023-07-13T10:41:20;28.90;41.20
10538;DHT22;5317;49.048;8.468;2023-07-13T10:43:51;29.00;40.30
10538;DHT22;5317;49.048;8.468;2023-07-13T10:46:20;28.90;40.80
10538;DHT22;5317;49.048;8.468;2023-07-13T10:48:50;29.00;41.70
10538;DHT22;5317;49.048;8.468;2023-07-13T10:51:20;29.20;42.10
10538;DHT22;5317;49.048;8.468;2023-07-13T10:53:48;29.40;40.70
10538;DHT22;5317;49.048;8.468;2023-07-13T10:56:35;29.50;40.80
10538;DHT22;5317;49.048;8.468;2023-07-13T10:59:10;29.50;40.20
10538;DHT22;5317;49.048;8.468;2023-07-13T11:01:49;29.50;40.30
10538;DHT22;5317;49.048;8.468;2023-07-13T11:04:18;29.40;39.20
10538;DHT22;5317;49.048;8.468;2023-07-13T11:06:50;29.20;39.80
10538;DHT22;5317;49.048;8.468;2023-07-13T11:09:31;29.40;42.20
10538;DHT22;5317;49.048;8.468;2023-07-13T11:11:59;29.40;40.40
10538;DHT22;5317;49.048;8.468;2023-07-13T11:14:30;29.50;40.30
10538;DHT22;5317;49.048;8.468;2023-07-13T11:16:57;29.60;40.60
10538;DHT22;5317;49.048;8.468;2023-07-13T11:19:41;29.60;40.10
10538;DHT22;5317;49.048;8.468;2023-07-13T11:22:16;29.70;41.30
10538;DHT22;5317;49.048;8.468;2023-07-13T11:24:58;29.80;40.30
10538;DHT22;5317;49.048;8.468;2023-07-13T11:27:36;29.80;40.10
10538;DHT22;5317;49.048;8.468;2023-07-13T11:30:22;29.90;40.20
10538;DHT22;5317;49.048;8.468;2023-07-13T11:32:51;30.10;41.00
10538;DHT22;5317;49.048;8.468;2023-07-13T11:35:34;30.10;39.90
10538;DHT22;5317;49.048;8.468;2023-07-13T11:38:10;29.90;39.50
10538;DHT22;5317;49.048;8.468;2023-07-13T11:40:38;30.00;40.90
10538;DHT22;5317;49.048;8.468;2023-07-13T11:43:06;30.10;40.60
10538;DHT22;5317;49.048;8.468;2023-07-13T11:45:33;30.10;39.60
10538;DHT22;5317;49.048;8.468;2023-07-13T11:48:01;30.10;39.90
10538;DHT22;5317;49.048;8.468;2023-07-13T11:50:28;30.10;39.50
10538;DHT22;5317;49.048;8.468;2023-07-13T11:52:57;29.90;38.90
10538;DHT22;5317;49.048;8.468;2023-07-13T11:55:29;29.70;39.10
10538;DHT22;5317;49.048;8.468;2023-07-13T11:57:58;29.70;39.00
10538;DHT22;5317;49.048;8.468;2023-07-13T12:00:29;29.70;40.20
10538;DHT22;5317;49.048;8.468;2023-07-13T12:02:59;29.80;39.40
10538;DHT22;5317;49.048;8.468;2023-07-13T12:05:28;30.10;41.60
10538;DHT22;5317;49.048;8.468;2023-07-13T12:07:57;30.20;39.40
10538;DHT22;5317;49.048;8.468;2023-07-13T12:10:26;30.20;39.60
10538;DHT22;5317;49.048;8.468;2023-07-13T12:12:56;30.50;40.00
10538;DHT22;5317;49.048;8.468;2023-07-13T12:15:28;30.60;38.00
10538;DHT22;5317;49.048;8.468;2023-07-13T12:17:57;30.50;38.10
10538;DHT22;5317;49.048;8.468;2023-07-13T12:20:26;30.50;38.30
10538;DHT22;5317;49.048;8.468;2023-07-13T12:22:53;30.60;38.40
10538;DHT22;5317;49.048;8.468;2023-07-13T12:25:22;30.60;38.80
10538;DHT22;5317;49.048;8.468;2023-07-13T12:27:51;30.60;36.90
10538;DHT22;5317;49.048;8.468;2023-07-13T12:30:25;30.40;36.60
10538;DHT22;5317;49.048;8.468;2023-07-13T12:33:00;30.40;38.00
10538;DHT22;5317;49.048;8.468;2023-07-13T12:35:29;30.60;40.00
10538;DHT22;5317;49.048;8.468;2023-07-13T12:38:01;30.90;39.80
10538;DHT22;5317;49.048;8.468;2023-07-13T12:40:34;31.20;38.90
10538;DHT22;5317;49.048;8.468;2023-07-13T12:43:04;31.10;35.50
10538;DHT22;5317;49.048;8.468;2023-07-13T12:45:32;31.20;38.30
10538;DHT22;5317;49.048;8.468;2023-07-13T12:48:05;31.50;40.10
10538;DHT22;5317;49.048;8.468;2023-07-13T12:50:38;31.30;35.90
10538;DHT22;5317;49.048;8.468;2023-07-13T12:53:13;31.20;37.50
10538;DHT22;5317;49.048;8.468;2023-07-13T12:55:42;31.10;36.50
10538;DHT22;5317;49.048;8.468;2023-07-13T12:58:17;30.90;35.40
10538;DHT22;5317;49.048;8.468;2023-07-13T13:00:50;30.80;36.80
10538;DHT22;5317;49.048;8.468;2023-07-13T13:03:24;30.80;37.20
10538;DHT22;5317;49.048;8.468;2023-07-13T13:06:04;31.00;36.00
10538;DHT22;5317;49.048;8.468;2023-07-13T13:08:32;31.10;36.70
10538;DHT22;5317;49.048;8.468;2023-07-13T13:10:59;31.20;37.10
10538;DHT22;5317;49.048;8.468;2023-07-13T13:13:28;31.20;33.90
10538;DHT22;5317;49.048;8.468;2023-07-13T13:15:55;31.00;33.50
10538;DHT22;5317;49.048;8.468;2023-07-13T13:18:23;30.90;34.20
10538;DHT22;5317;49.048;8.468;2023-07-13T13:20:51;31.00;34.20
10538;DHT22;5317;49.048;8.468;2023-07-13T13:23:19;31.00;33.60
10538;DHT22;5317;49.048;8.468;2023-07-13T13:25:50;31.10;36.00
10538;DHT22;5317;49.048;8.468;2023-07-13T13:28:19;31.30;36.60
10538;DHT22;5317;49.048;8.468;2023-07-13T13:30:49;31.50;36.90
10538;DHT22;5317;49.048;8.468;2023-07-13T13:33:19;31.80;35.40
10538;DHT22;5317;49.048;8.468;2023-07-13T13:35:47;31.80;35.30
10538;DHT22;5317;49.048;8.468;2023-07-13T13:38:16;31.90;35.90
10538;DHT22;5317;49.048;8.468;2023-07-13T13:40:44;31.90;36.10
10538;DHT22;5317;49.048;8.468;2023-07-13T13:43:15;31.90;34.60
10538;DHT22;5317;49.048;8.468;2023-07-13T13:45:43;31.80;35.20
10538;DHT22;5317;49.048;8.468;2023-07-13T13:48:16;31.80;34.70
10538;DHT22;5317;49.048;8.468;2023-07-13T13:50:44;31.80;34.80
10538;DHT22;5317;49.048;8.468;2023-07-13T13:53:12;31.80;34.00
10538;DHT22;5317;49.048;8.468;2023-07-13T13:55:39;31.80;35.30
10538;DHT22;5317;49.048;8.468;2023-07-13T13:58:08;31.90;35.80
10538;DHT22;5317;49.048;8.468;2023-07-13T14:00:35;32.00;35.90
10538;DHT22;5317;49.048;8.468;2023-07-13T14:03:02;32.10;35.50
10538;DHT22;5317;49.048;8.468;2023-07-13T14:05:30;32.20;34.90
10538;DHT22;5317;49.048;8.468;2023-07-13T14:07:57;32.10;35.00
10538;DHT22;5317;49.048;8.468;2023-07-13T14:10:25;32.20;35.10
10538;DHT22;5317;49.048;8.468;2023-07-13T14:12:54;32.30;33.80
10538;DHT22;5317;49.048;8.468;2023-07-13T14:15:23;32.10;34.70
10538;DHT22;5317;49.048;8.468;2023-07-13T14:17:50;32.20;35.00
10538;DHT22;5317;49.048;8.468;2023-07-13T14:20:19;32.20;35.00
10538;DHT22;5317;49.048;8.468;2023-07-13T14:22:48;32.20;33.70
10538;DHT22;5317;49.048;8.468;2023-07-13T14:25:16;32.10;32.90
10538;DHT22;5317;49.048;8.468;2023-07-13T14:27:44;31.90;33.90
10538;DHT22;5317;49.048;8.468;2023-07-13T14:30:16;31.90;35.30
10538;DHT22;5317;49.048;8.468;2023-07-13T14:32:43;32.00;35.30
10538;DHT22;5317;49.048;8.468;2023-07-13T14:35:11;32.10;35.20
10538;DHT22;5317;49.048;8.468;2023-07-13T14:37:39;32.20;35.90
10538;DHT22;5317;49.048;8.468;2023-07-13T14:40:14;32.30;36.20
10538;DHT22;5317;49.048;8.468;2023-07-13T14:42:42;32.40;35.60
10538;DHT22;5317;49.048;8.468;2023-07-13T14:45:13;32.40;35.50
10538;DHT22;5317;49.048;8.468;2023-07-13T14:47:41;32.30;34.20
10538;DHT22;5317;49.048;8.468;2023-07-13T14:50:13;32.00;34.10
10538;DHT22;5317;49.048;8.468;2023-07-13T14:52:41;32.10;35.80
10538;DHT22;5317;49.048;8.468;2023-07-13T14:55:10;31.80;34.10
10538;DHT22;5317;49.048;8.468;2023-07-13T14:57:39;31.50;34.40
10538;DHT22;5317;49.048;8.468;2023-07-13T15:00:13;31.50;35.00
10538;DHT22;5317;49.048;8.468;2023-07-13T15:02:43;31.60;35.60
10538;DHT22;5317;49.048;8.468;2023-07-13T15:05:15;31.70;35.90
10538;DHT22;5317;49.048;8.468;2023-07-13T15:07:43;31.80;36.50
10538;DHT22;5317;49.048;8.468;2023-07-13T15:10:15;31.80;36.10
10538;DHT22;5317;49.048;8.468;2023-07-13T15:12:43;31.60;35.10
10538;DHT22;5317;49.048;8.468;2023-07-13T15:15:11;31.70;35.90
10538;DHT22;5317;49.048;8.468;2023-07-13T15:17:40;31.70;35.30
10538;DHT22;5317;49.048;8.468;2023-07-13T15:20:17;31.80;36.00
10538;DHT22;5317;49.048;8.468;2023-07-13T15:22:45;31.80;35.20
10538;DHT22;5317;49.048;8.468;2023-07-13T15:25:17;31.80;36.00
10538;DHT22;5317;49.048;8.468;2023-07-13T15:27:46;31.80;36.10
10538;DHT22;5317;49.048;8.468;2023-07-13T15:30:14;31.80;35.70
10538;DHT22;5317;49.048;8.468;2023-07-13T15:32:41;31.80;35.20
10538;DHT22;5317;49.048;8.468;2023-07-13T15:35:19;31.70;35.00
10538;DHT22;5317;49.048;8.468;2023-07-13T15:37:48;31.60;35.00
10538;DHT22;5317;49.048;8.468;2023-07-13T15:40:16;31.40;34.30
10538;DHT22;5317;49.048;8.468;2023-07-13T15:42:45;31.10;35.20
10538;DHT22;5317;49.048;8.468;2023-07-13T15:45:16;31.10;36.30
10538;DHT22;5317;49.048;8.468;2023-07-13T15:47:44;31.10;36.50
10538;DHT22;5317;49.048;8.468;2023-07-13T15:50:15;31.20;35.90
10538;DHT22;5317;49.048;8.468;2023-07-13T15:52:43;31.10;34.90
10538;DHT22;5317;49.048;8.468;2023-07-13T15:55:13;31.00;35.80
10538;DHT22;5317;49.048;8.468;2023-07-13T15:57:43;31.00;36.50